createdAt,value
2022-12-07T00:01:42.188Z,3.80
2022-12-07T00:04:14.168Z,3.80
2022-12-07T00:06:44.248Z,3.80
2022-12-07T00:09:14.778Z,3.80
2022-12-07T00:11:42.757Z,3.80
2022-12-07T00:14:14.021Z,3.70
2022-12-07T00:16:42.311Z,3.80
2022-12-07T00:19:12.937Z,3.70
2022-12-07T00:21:40.294Z,3.80
2022-12-07T00:24:07.510Z,3.80
2022-12-07T00:26:38.177Z,3.80
2022-12-07T00:29:08.421Z,3.90
2022-12-07T00:31:40.485Z,3.90
2022-12-07T00:34:08.571Z,3.90
2022-12-07T00:36:36.766Z,3.90
2022-12-07T00:39:04.094Z,3.90
2022-12-07T00:41:31.286Z,4.00
2022-12-07T00:43:59.213Z,4.00
2022-12-07T00:46:26.324Z,4.00
2022-12-07T00:48:54.884Z,4.00
2022-12-07T00:54:18.362Z,4.10
2022-12-07T00:56:45.386Z,4.20
2022-12-07T00:59:14.667Z,4.20
2022-12-07T01:01:42.296Z,4.20
2022-12-07T01:04:09.670Z,4.30
2022-12-07T01:06:36.973Z,4.30
2022-12-07T01:09:04.720Z,4.30
2022-12-07T01:11:33.286Z,4.30
2022-12-07T01:14:02.548Z,4.30
2022-12-07T01:16:32.763Z,4.30
2022-12-07T01:19:01.676Z,4.40
2022-12-07T01:21:32.241Z,4.30
2022-12-07T01:24:24.705Z,4.30
2022-12-07T01:26:53.089Z,4.30
2022-12-07T01:29:19.978Z,4.30
2022-12-07T01:31:49.698Z,4.30
2022-12-07T01:34:16.711Z,4.30
2022-12-07T01:36:44.090Z,4.30
2022-12-07T01:39:11.431Z,4.30
2022-12-07T01:41:41.667Z,4.20
2022-12-07T01:44:16.110Z,4.20
2022-12-07T01:46:45.688Z,4.20
2022-12-07T01:49:23.559Z,4.20
2022-12-07T01:54:52.283Z,4.30
2022-12-07T01:57:21.689Z,4.30
2022-12-07T01:59:52.965Z,4.30
2022-12-07T02:02:26.959Z,4.30
2022-12-07T02:04:58.017Z,4.30
2022-12-07T02:07:26.811Z,4.30
2022-12-07T02:09:54.141Z,4.30
2022-12-07T02:12:23.201Z,4.30
2022-12-07T02:14:52.419Z,4.30
2022-12-07T02:17:28.050Z,4.30
2022-12-07T02:20:19.813Z,4.30
2022-12-07T02:23:19.413Z,4.30
2022-12-07T02:26:18.028Z,4.30
2022-12-07T02:29:11.742Z,4.30
2022-12-07T02:31:47.224Z,4.30
2022-12-07T02:34:27.087Z,4.30
2022-12-07T02:37:04.325Z,4.30
2022-12-07T02:39:42.045Z,4.30
2022-12-07T02:42:16.009Z,4.30
2022-12-07T02:44:47.113Z,4.20
2022-12-07T02:47:19.324Z,4.20
2022-12-07T02:49:47.476Z,4.10
2022-12-07T02:52:14.319Z,4.10
2022-12-07T02:55:08.492Z,4.00
2022-12-07T02:57:58.119Z,3.90
2022-12-07T03:00:26.398Z,3.90
2022-12-07T03:03:01.473Z,3.90
2022-12-07T03:05:53.949Z,3.80
2022-12-07T03:08:32.694Z,3.80
2022-12-07T03:11:05.396Z,3.70
2022-12-07T03:13:41.173Z,3.70
2022-12-07T03:16:16.888Z,3.60
2022-12-07T03:18:50.002Z,3.60
2022-12-07T03:21:23.622Z,3.50
2022-12-07T03:23:56.525Z,3.50
2022-12-07T03:26:31.377Z,3.50
2022-12-07T03:29:03.644Z,3.40
2022-12-07T03:31:40.097Z,3.40
2022-12-07T03:34:10.963Z,3.40
2022-12-07T03:36:41.668Z,3.40
2022-12-07T03:39:20.601Z,3.30
2022-12-07T03:41:47.639Z,3.30
2022-12-07T03:44:16.985Z,3.30
2022-12-07T03:46:56.913Z,3.30
2022-12-07T03:49:28.665Z,3.20
2022-12-07T03:52:00.663Z,3.20
2022-12-07T03:54:33.241Z,3.20
2022-12-07T03:57:02.211Z,3.20
2022-12-07T03:59:29.640Z,3.20
2022-12-07T04:02:04.249Z,3.20
2022-12-07T04:04:31.861Z,3.20
2022-12-07T04:06:59.260Z,3.20
2022-12-07T04:09:26.874Z,3.20
2022-12-07T04:11:53.638Z,3.20
2022-12-07T04:14:20.220Z,3.20
2022-12-07T04:16:47.841Z,3.20
2022-12-07T04:19:17.143Z,3.10
2022-12-07T04:21:44.586Z,3.10
2022-12-07T04:24:12.748Z,3.10
2022-12-07T04:26:39.625Z,3.10
2022-12-07T04:29:07.659Z,3.10
2022-12-07T04:31:40.392Z,3.10
2022-12-07T04:34:07.753Z,3.10
2022-12-07T04:36:35.904Z,3.10
2022-12-07T04:39:03.357Z,3.10
2022-12-07T04:41:29.997Z,3.10
2022-12-07T04:44:01.219Z,3.10
2022-12-07T04:46:30.213Z,3.10
2022-12-07T04:48:57.241Z,3.10
2022-12-07T04:51:26.401Z,3.10
2022-12-07T04:53:55.813Z,3.10
2022-12-07T04:56:23.421Z,3.10
2022-12-07T04:58:50.401Z,3.00
2022-12-07T05:01:18.089Z,3.00
2022-12-07T05:03:45.123Z,3.00
2022-12-07T05:06:13.903Z,3.00
2022-12-07T05:08:41.614Z,3.00
2022-12-07T05:11:10.145Z,3.00
2022-12-07T05:13:37.253Z,3.00
2022-12-07T05:16:04.469Z,3.00
2022-12-07T05:18:31.403Z,2.90
2022-12-07T05:20:58.012Z,2.90
2022-12-07T05:23:24.880Z,2.80
2022-12-07T05:25:52.038Z,2.80
2022-12-07T05:28:20.315Z,2.80
2022-12-07T05:30:47.260Z,2.70
2022-12-07T05:33:14.815Z,2.70
2022-12-07T05:35:41.957Z,2.70
2022-12-07T05:38:08.592Z,2.70
2022-12-07T05:40:37.735Z,2.60
2022-12-07T05:43:05.161Z,2.60
2022-12-07T05:45:33.225Z,2.60
2022-12-07T05:48:00.416Z,2.50
2022-12-07T05:50:27.128Z,2.50
2022-12-07T05:53:00.553Z,2.50
2022-12-07T05:55:27.440Z,2.40
2022-12-07T05:57:54.020Z,2.40
2022-12-07T06:00:21.035Z,2.40
2022-12-07T06:02:49.151Z,2.30
2022-12-07T06:05:16.043Z,2.30
2022-12-07T06:07:43.432Z,2.30
2022-12-07T06:10:11.075Z,2.30
2022-12-07T06:12:38.012Z,2.30
2022-12-07T06:15:05.292Z,2.20
2022-12-07T06:17:32.539Z,2.20
2022-12-07T06:20:01.154Z,2.20
2022-12-07T06:22:27.860Z,2.20
2022-12-07T06:24:54.462Z,2.20
2022-12-07T06:27:21.777Z,2.10
2022-12-07T06:29:48.501Z,2.10
2022-12-07T06:32:15.245Z,2.10
2022-12-07T06:34:42.347Z,2.10
2022-12-07T06:37:10.616Z,2.10
2022-12-07T06:39:37.274Z,2.10
2022-12-07T06:42:04.380Z,2.10
2022-12-07T06:44:31.051Z,2.10
2022-12-07T06:47:18.724Z,2.10
2022-12-07T06:49:44.275Z,2.10
2022-12-07T06:52:12.494Z,2.10
2022-12-07T06:54:39.372Z,2.10
2022-12-07T06:57:06.099Z,2.10
2022-12-07T06:59:33.011Z,2.20
2022-12-07T07:01:59.958Z,2.20
2022-12-07T07:04:26.533Z,2.20
2022-12-07T07:06:59.647Z,2.20
2022-12-07T07:09:28.287Z,2.20
2022-12-07T07:11:54.897Z,2.30
2022-12-07T07:14:21.568Z,2.30
2022-12-07T07:16:48.244Z,2.30
2022-12-07T07:19:15.121Z,2.30
2022-12-07T07:21:41.743Z,2.30
2022-12-07T07:24:08.544Z,2.40
2022-12-07T07:26:36.771Z,2.40
2022-12-07T07:29:03.377Z,2.40
2022-12-07T07:31:30.345Z,2.40
2022-12-07T07:33:56.902Z,2.50
2022-12-07T07:36:26.696Z,2.50
2022-12-07T07:38:53.373Z,2.50
2022-12-07T07:44:15.674Z,2.60
2022-12-07T07:46:42.449Z,2.70
2022-12-07T07:49:10.002Z,2.70
2022-12-07T07:51:36.631Z,2.70
2022-12-07T07:56:54.798Z,2.80
2022-12-07T07:59:22.789Z,2.80
2022-12-07T08:01:49.588Z,2.90
2022-12-07T08:04:16.303Z,2.90
2022-12-07T08:06:42.929Z,2.90
2022-12-07T08:09:09.862Z,3.00
2022-12-07T08:11:37.007Z,3.00
2022-12-07T08:14:03.658Z,3.00
2022-12-07T08:16:31.788Z,3.00
2022-12-07T08:18:58.652Z,3.00
2022-12-07T08:21:25.266Z,3.10
2022-12-07T08:27:08.777Z,3.10
2022-12-07T08:29:36.905Z,3.10
2022-12-07T08:32:09.594Z,3.20
2022-12-07T08:34:36.627Z,3.20
2022-12-07T08:37:03.310Z,3.20
2022-12-07T08:39:31.745Z,3.30
2022-12-07T08:42:02.281Z,3.40
2022-12-07T08:44:28.918Z,3.40
2022-12-07T08:46:59.694Z,3.50
2022-12-07T08:49:31.555Z,3.60
2022-12-07T08:51:58.436Z,3.70
2022-12-07T08:54:25.426Z,3.70
2022-12-07T08:57:17.672Z,3.70
2022-12-07T08:59:44.287Z,3.80
2022-12-07T09:02:11.016Z,3.80
2022-12-07T09:04:39.072Z,3.80
2022-12-07T09:07:06.059Z,3.90
2022-12-07T09:09:33.126Z,4.00
2022-12-07T09:11:59.728Z,4.00
2022-12-07T09:14:26.341Z,4.00
2022-12-07T09:16:53.130Z,4.00
2022-12-07T09:19:19.941Z,4.00
2022-12-07T09:21:48.343Z,4.10
2022-12-07T09:24:15.343Z,4.10
2022-12-07T09:26:42.118Z,4.10
2022-12-07T09:29:08.805Z,4.10
2022-12-07T09:31:39.856Z,4.10
2022-12-07T09:34:06.686Z,4.20
2022-12-07T09:36:33.760Z,4.20
2022-12-07T09:39:01.910Z,4.30
2022-12-07T09:41:32.368Z,4.30
2022-12-07T09:44:05.129Z,4.40
2022-12-07T09:46:36.340Z,4.50
2022-12-07T09:49:03.792Z,4.50
2022-12-07T09:51:30.465Z,4.60
2022-12-07T09:53:59.498Z,4.70
2022-12-07T09:56:30.747Z,4.80
2022-12-07T09:59:01.155Z,4.80
2022-12-07T10:01:30.212Z,4.80
2022-12-07T10:04:06.955Z,4.80
2022-12-07T10:06:33.628Z,4.80
2022-12-07T10:09:00.303Z,4.90
2022-12-07T10:11:28.528Z,4.90
2022-12-07T10:13:55.353Z,4.90
2022-12-07T10:16:40.267Z,4.90
2022-12-07T10:19:24.598Z,4.90
2022-12-07T10:22:11.894Z,4.90
2022-12-07T10:24:39.111Z,5.00
2022-12-07T10:27:19.558Z,5.00
2022-12-07T10:29:49.564Z,5.00
2022-12-07T10:32:31.628Z,5.00
2022-12-07T10:35:20.945Z,5.10
2022-12-07T10:37:48.530Z,5.10
2022-12-07T10:40:30.852Z,5.10
2022-12-07T10:43:14.061Z,5.10
2022-12-07T10:46:03.690Z,5.20
2022-12-07T10:48:39.316Z,5.20
2022-12-07T10:51:12.988Z,5.20
2022-12-07T10:53:48.855Z,5.30
2022-12-07T10:56:34.411Z,5.30
2022-12-07T10:59:20.398Z,5.30
2022-12-07T11:01:51.686Z,5.40
2022-12-07T11:04:30.333Z,5.40
2022-12-07T11:07:07.059Z,5.40
2022-12-07T11:10:08.487Z,5.50
2022-12-07T11:13:02.922Z,5.50
2022-12-07T11:15:39.969Z,5.60
2022-12-07T11:18:12.123Z,5.60
2022-12-07T11:20:45.662Z,5.70
2022-12-07T11:23:21.999Z,5.70
2022-12-07T11:25:55.737Z,5.70
2022-12-07T11:28:36.501Z,5.60
2022-12-07T11:31:13.580Z,5.50
2022-12-07T11:33:46.833Z,5.50
2022-12-07T11:36:32.155Z,5.50
2022-12-07T11:39:04.681Z,5.40
2022-12-07T11:41:35.625Z,5.40
2022-12-07T11:44:06.887Z,5.30
2022-12-07T11:46:47.377Z,5.30
2022-12-07T11:49:22.285Z,5.30
2022-12-07T11:51:52.002Z,5.30
2022-12-07T11:54:23.601Z,5.40
2022-12-07T11:56:52.341Z,5.40
2022-12-07T11:59:25.170Z,5.50
2022-12-07T12:01:58.219Z,5.50
2022-12-07T12:04:33.528Z,5.60
2022-12-07T12:09:54.807Z,5.90
2022-12-07T12:15:40.858Z,6.80
2022-12-07T12:18:27.187Z,6.80
2022-12-07T12:20:58.638Z,7.00
2022-12-07T12:23:34.964Z,7.20
2022-12-07T12:26:05.068Z,7.10
2022-12-07T12:28:38.697Z,6.90
2022-12-07T12:31:08.860Z,6.70
2022-12-07T12:33:38.975Z,6.60
2022-12-07T12:36:22.775Z,6.50
2022-12-07T12:38:51.515Z,6.30
2022-12-07T12:41:58.428Z,6.20
2022-12-07T12:44:41.238Z,6.30
2022-12-07T12:47:43.605Z,6.30
2022-12-07T12:50:19.632Z,6.30
2022-12-07T12:53:03.571Z,6.40
2022-12-07T12:56:09.871Z,6.40
2022-12-07T12:59:24.287Z,6.30
2022-12-07T13:01:51.716Z,6.30
2022-12-07T13:04:25.249Z,6.30
2022-12-07T13:06:53.944Z,6.20
2022-12-07T13:09:24.856Z,6.30
2022-12-07T13:11:58.870Z,6.40
2022-12-07T13:14:55.485Z,6.40
2022-12-07T13:17:57.781Z,6.20
2022-12-07T13:20:44.150Z,6.10
2022-12-07T13:23:14.141Z,6.00
2022-12-07T13:25:49.154Z,5.90
2022-12-07T13:28:18.131Z,5.80
2022-12-07T13:30:51.270Z,5.60
2022-12-07T13:33:18.884Z,5.50
2022-12-07T13:35:45.498Z,5.40
2022-12-07T13:38:26.346Z,5.30
2022-12-07T13:41:15.173Z,5.30
2022-12-07T13:43:46.350Z,5.20
2022-12-07T13:46:13.456Z,5.10
2022-12-07T13:48:45.796Z,5.00
2022-12-07T13:51:19.564Z,5.00
2022-12-07T13:53:52.771Z,4.90
2022-12-07T13:59:18.794Z,4.80
2022-12-07T14:01:47.646Z,4.70
2022-12-07T14:04:32.160Z,4.70
2022-12-07T14:06:59.477Z,4.60
2022-12-07T14:09:28.879Z,4.60
2022-12-07T14:11:57.096Z,4.50
2022-12-07T14:14:31.593Z,4.50
2022-12-07T14:17:12.480Z,4.40
2022-12-07T14:19:48.873Z,4.40
2022-12-07T14:22:23.768Z,4.40
2022-12-07T14:24:58.691Z,4.30
2022-12-07T14:27:25.931Z,4.30
2022-12-07T14:29:52.914Z,4.20
2022-12-07T14:32:23.258Z,4.20
2022-12-07T14:34:57.860Z,4.10
2022-12-07T14:37:25.048Z,4.10
2022-12-07T14:39:53.308Z,4.00
2022-12-07T14:42:20.940Z,3.90
2022-12-07T14:44:47.584Z,3.90
2022-12-07T14:50:03.414Z,3.70
2022-12-07T14:55:25.855Z,3.60
2022-12-07T14:57:53.110Z,3.50
2022-12-07T15:00:21.709Z,3.40
2022-12-07T15:02:49.760Z,3.30
2022-12-07T15:05:17.619Z,3.20
2022-12-07T15:07:45.709Z,3.20
2022-12-07T15:10:20.596Z,3.10
2022-12-07T15:12:52.613Z,3.10
2022-12-07T15:15:19.568Z,3.00
2022-12-07T15:17:46.596Z,3.00
2022-12-07T15:20:14.976Z,2.90
2022-12-07T15:22:41.623Z,2.90
2022-12-07T15:25:10.202Z,2.80
2022-12-07T15:27:36.926Z,2.80
2022-12-07T15:30:06.656Z,2.80
2022-12-07T15:32:33.961Z,2.80
2022-12-07T15:35:01.120Z,2.70
2022-12-07T15:37:31.129Z,2.70
2022-12-07T15:39:59.547Z,2.70
2022-12-07T15:42:29.498Z,2.70
2022-12-07T15:44:56.133Z,2.70
2022-12-07T15:47:24.435Z,2.60
2022-12-07T15:49:51.279Z,2.60
2022-12-07T15:52:17.933Z,2.60
2022-12-07T15:54:44.911Z,2.50
2022-12-07T16:00:03.515Z,2.50
2022-12-07T16:02:38.129Z,2.50
2022-12-07T16:05:07.140Z,2.40
2022-12-07T16:07:33.812Z,2.40
2022-12-07T16:10:00.641Z,2.40
2022-12-07T16:12:27.228Z,2.40
2022-12-07T16:14:53.792Z,2.40
2022-12-07T16:17:20.450Z,2.30
2022-12-07T16:19:48.494Z,2.30
2022-12-07T16:22:15.445Z,2.30
2022-12-07T16:24:42.626Z,2.30
2022-12-07T16:27:09.185Z,2.30
2022-12-07T16:29:36.049Z,2.30
2022-12-07T16:32:02.812Z,2.20
2022-12-07T16:34:29.836Z,2.20
2022-12-07T16:37:05.994Z,2.20
2022-12-07T16:39:34.035Z,2.20
2022-12-07T16:42:01.319Z,2.20
2022-12-07T16:44:27.930Z,2.20
2022-12-07T16:46:54.699Z,2.20
2022-12-07T16:49:21.333Z,2.20
2022-12-07T16:52:08.821Z,2.20
2022-12-07T16:54:38.761Z,2.20
2022-12-07T16:57:05.404Z,2.20
2022-12-07T16:59:31.992Z,2.20
2022-12-07T17:01:59.116Z,2.20
2022-12-07T17:04:26.176Z,2.20
2022-12-07T17:06:52.983Z,2.20
2022-12-07T17:09:21.610Z,2.20
2022-12-07T17:11:49.769Z,2.20
2022-12-07T17:14:16.641Z,2.20
2022-12-07T17:16:43.696Z,2.20
2022-12-07T17:19:12.596Z,2.20
2022-12-07T17:21:39.680Z,2.20
2022-12-07T17:24:10.048Z,2.20
2022-12-07T17:26:37.392Z,2.10
2022-12-07T17:29:07.083Z,2.20
2022-12-07T17:31:33.958Z,2.20
2022-12-07T17:34:01.146Z,2.20
2022-12-07T17:36:29.265Z,2.20
2022-12-07T17:38:57.192Z,2.20
2022-12-07T17:41:31.402Z,2.20
2022-12-07T17:44:01.720Z,2.20
2022-12-07T17:46:34.827Z,2.20
2022-12-07T17:49:02.096Z,2.20
2022-12-07T17:51:28.974Z,2.20
2022-12-07T17:53:55.675Z,2.20
2022-12-07T17:56:29.709Z,2.20
2022-12-07T17:58:56.583Z,2.20
2022-12-07T18:01:24.317Z,2.20
2022-12-07T18:03:52.980Z,2.20
2022-12-07T18:06:19.846Z,2.20
2022-12-07T18:08:46.821Z,2.20
2022-12-07T18:11:13.520Z,2.30
2022-12-07T18:13:40.658Z,2.30
2022-12-07T18:16:09.462Z,2.30
2022-12-07T18:18:36.983Z,2.30
2022-12-07T18:21:08.142Z,2.30
2022-12-07T18:23:34.844Z,2.30
2022-12-07T18:26:01.596Z,2.30
2022-12-07T18:28:28.283Z,2.30
2022-12-07T18:33:43.065Z,2.20
2022-12-07T18:36:11.968Z,2.20
2022-12-07T18:38:39.200Z,2.20
2022-12-07T18:41:07.975Z,2.10
2022-12-07T18:43:35.086Z,2.10
2022-12-07T18:46:01.937Z,2.00
2022-12-07T18:48:30.051Z,2.00
2022-12-07T18:51:01.231Z,2.00
2022-12-07T18:53:55.671Z,1.90
2022-12-07T18:56:24.747Z,1.90
2022-12-07T18:58:52.804Z,1.90
2022-12-07T19:01:19.536Z,1.90
2022-12-07T19:03:46.291Z,1.90
2022-12-07T19:06:15.286Z,1.90
2022-12-07T19:08:42.363Z,1.90
2022-12-07T19:11:20.841Z,2.00
2022-12-07T19:13:50.768Z,2.00
2022-12-07T19:16:17.447Z,2.00
2022-12-07T19:18:50.778Z,2.00
2022-12-07T19:21:18.342Z,2.00
2022-12-07T19:23:46.246Z,2.00
2022-12-07T19:26:14.508Z,1.90
2022-12-07T19:28:41.361Z,1.90
2022-12-07T19:31:08.719Z,1.90
2022-12-07T19:33:35.406Z,1.90
2022-12-07T19:36:02.071Z,1.90
2022-12-07T19:38:30.555Z,1.90
2022-12-07T19:41:04.407Z,1.90
2022-12-07T19:43:34.323Z,1.90
2022-12-07T19:46:04.834Z,1.90
2022-12-07T19:48:31.683Z,1.90
2022-12-07T19:51:02.604Z,1.90
2022-12-07T19:53:55.891Z,1.90
2022-12-07T19:56:22.630Z,1.90
2022-12-07T19:58:50.802Z,1.90
2022-12-07T20:01:17.638Z,1.90
2022-12-07T20:03:44.544Z,1.90
2022-12-07T20:06:13.168Z,1.80
2022-12-07T20:08:40.735Z,1.80
2022-12-07T20:11:07.876Z,1.80
2022-12-07T20:13:34.427Z,1.80
2022-12-07T20:16:18.999Z,1.70
2022-12-07T20:18:47.944Z,1.70
2022-12-07T20:21:16.045Z,1.70
2022-12-07T20:23:43.133Z,1.60
2022-12-07T20:26:11.716Z,1.60
2022-12-07T20:28:39.103Z,1.60
2022-12-07T20:31:07.257Z,1.60
2022-12-07T20:33:34.125Z,1.60
2022-12-07T20:36:01.444Z,1.60
2022-12-07T20:38:28.543Z,1.60
2022-12-07T20:41:00.267Z,1.60
2022-12-07T20:43:27.147Z,1.60
2022-12-07T20:45:54.258Z,1.60
2022-12-07T20:48:23.602Z,1.60
2022-12-07T20:54:06.516Z,1.70
2022-12-07T20:56:33.688Z,1.70
2022-12-07T20:59:02.489Z,1.70
2022-12-07T21:01:29.631Z,1.70
2022-12-07T21:03:59.348Z,1.70
2022-12-07T21:06:27.428Z,1.70
2022-12-07T21:08:56.820Z,1.70
2022-12-07T21:11:24.726Z,1.70
2022-12-07T21:13:51.550Z,1.60
2022-12-07T21:16:20.481Z,1.60
2022-12-07T21:18:47.651Z,1.70
2022-12-07T21:21:17.391Z,1.70
2022-12-07T21:23:44.024Z,1.70
2022-12-07T21:26:11.727Z,1.70
2022-12-07T21:28:38.700Z,1.70
2022-12-07T21:31:12.879Z,1.70
2022-12-07T21:33:41.037Z,1.70
2022-12-07T21:36:08.839Z,1.70
2022-12-07T21:38:36.951Z,1.80
2022-12-07T21:41:11.692Z,1.80
2022-12-07T21:43:38.675Z,1.90
2022-12-07T21:46:05.663Z,1.90
2022-12-07T21:48:32.394Z,1.90
2022-12-07T21:53:58.759Z,2.00
2022-12-07T21:56:27.031Z,2.00
2022-12-07T21:58:54.891Z,2.00
2022-12-07T22:01:23.994Z,2.00
2022-12-07T22:03:51.059Z,2.00
2022-12-07T22:06:19.661Z,2.00
2022-12-07T22:08:46.439Z,2.00
2022-12-07T22:11:15.567Z,2.10
2022-12-07T22:13:44.623Z,2.10
2022-12-07T22:16:11.418Z,2.10
2022-12-07T22:18:38.019Z,2.20
2022-12-07T22:21:05.275Z,2.20
2022-12-07T22:23:32.215Z,2.20
2022-12-07T22:25:59.252Z,2.20
2022-12-07T22:28:27.288Z,2.20
2022-12-07T22:30:53.903Z,2.20
2022-12-07T22:33:20.895Z,2.20
2022-12-07T22:35:52.259Z,2.20
2022-12-07T22:38:18.878Z,2.20
2022-12-07T22:40:45.650Z,2.20
2022-12-07T22:43:12.608Z,2.20
2022-12-07T22:45:40.722Z,2.20
2022-12-07T22:48:07.956Z,2.10
2022-12-07T22:50:35.220Z,2.10
2022-12-07T22:53:02.138Z,2.10
2022-12-07T22:55:28.766Z,2.10
2022-12-07T22:58:03.756Z,2.10
2022-12-07T23:00:30.388Z,2.00
2022-12-07T23:02:58.453Z,2.10
2022-12-07T23:05:25.310Z,2.10
2022-12-07T23:07:51.944Z,2.10
2022-12-07T23:10:18.879Z,2.10
2022-12-07T23:12:45.807Z,2.10
2022-12-07T23:15:12.586Z,2.10
2022-12-07T23:17:43.994Z,2.10
2022-12-07T23:20:12.282Z,2.10
2022-12-07T23:22:38.892Z,2.10
2022-12-07T23:25:07.004Z,2.10
2022-12-07T23:27:34.327Z,2.10
2022-12-07T23:30:01.074Z,2.10
2022-12-07T23:32:27.766Z,2.10
2022-12-07T23:34:54.543Z,2.10
2022-12-07T23:37:22.617Z,2.10
2022-12-07T23:39:49.368Z,2.10
2022-12-07T23:42:15.979Z,2.10
2022-12-07T23:44:42.850Z,2.10
2022-12-07T23:47:09.665Z,2.10
2022-12-07T23:49:36.581Z,2.10
2022-12-07T23:54:55.833Z,2.10
2022-12-07T23:57:22.619Z,2.10
2022-12-07T23:59:49.655Z,2.10
